createdAt,value
2019-02-06T00:00:30.264Z,13.20
2019-02-06T00:01:30.249Z,13.80
2019-02-06T00:02:30.218Z,13.80
2019-02-06T00:03:30.204Z,13.80
2019-02-06T00:04:30.175Z,13.70
2019-02-06T00:05:30.148Z,13.10
2019-02-06T00:06:30.130Z,14.10
2019-02-06T00:07:30.105Z,14.00
2019-02-06T00:08:30.083Z,13.90
2019-02-06T00:09:30.057Z,14.00
2019-02-06T00:10:30.038Z,13.30
2019-02-06T00:36:08.135Z,12.90
2019-02-06T00:37:08.111Z,12.70
2019-02-06T00:38:08.089Z,12.20
2019-02-06T00:39:08.065Z,12.40
2019-02-06T00:40:08.045Z,12.90
2019-02-06T00:41:08.019Z,12.20
2019-02-06T00:42:08.012Z,12.10
2019-02-06T00:43:07.972Z,12.10
2019-02-06T00:44:07.953Z,12.40
2019-02-06T00:45:07.927Z,12.40
2019-02-06T00:46:07.911Z,12.30
2019-02-06T00:47:07.885Z,11.80
2019-02-06T00:48:07.859Z,12.30
2019-02-06T00:49:07.831Z,12.10
2019-02-06T00:50:07.821Z,11.80
2019-02-06T00:51:07.789Z,12.60
2019-02-06T00:52:07.770Z,12.00
2019-02-06T00:53:07.743Z,11.50
2019-02-06T00:54:07.720Z,11.40
2019-02-06T00:55:07.699Z,11.70
2019-02-06T00:56:07.679Z,12.10
2019-02-06T00:57:07.649Z,11.60
2019-02-06T00:58:07.632Z,11.90
2019-02-06T00:59:07.606Z,11.90
2019-02-06T01:00:07.589Z,11.60
2019-02-06T01:01:07.670Z,11.40
2019-02-06T01:02:07.538Z,11.80
2019-02-06T01:03:07.525Z,11.30
2019-02-06T01:04:07.492Z,11.50
2019-02-06T01:05:07.470Z,11.60
2019-02-06T01:06:07.447Z,11.90
2019-02-06T01:07:07.426Z,11.30
2019-02-06T01:08:07.400Z,11.70
2019-02-06T01:09:07.375Z,11.90
2019-02-06T01:10:07.353Z,11.20
2019-02-06T01:11:07.329Z,11.70
2019-02-06T01:12:07.303Z,11.20
2019-02-06T01:13:07.283Z,11.40
2019-02-06T01:14:07.259Z,11.10
2019-02-06T01:15:07.239Z,11.90
2019-02-06T01:16:07.215Z,11.30
2019-02-06T01:17:07.191Z,11.70
2019-02-06T01:18:07.186Z,11.10
2019-02-06T01:19:07.144Z,11.30
2019-02-06T01:20:07.123Z,11.50
2019-02-06T01:21:07.101Z,11.60
2019-02-06T01:22:07.079Z,11.70
2019-02-06T01:23:07.050Z,11.30
2019-02-06T01:24:07.036Z,10.80
2019-02-06T01:25:07.007Z,10.60
2019-02-06T01:26:06.981Z,11.60
2019-02-06T01:27:06.959Z,11.80
2019-02-06T01:31:44.497Z,11.10
2019-02-06T01:32:44.475Z,11.60
2019-02-06T01:33:44.453Z,11.80
2019-02-06T01:34:44.426Z,11.50
2019-02-06T01:35:49.987Z,10.90
2019-02-06T01:36:44.387Z,11.10
2019-02-06T01:37:44.362Z,11.00
2019-02-06T01:38:44.341Z,11.00
2019-02-06T01:39:44.313Z,10.90
2019-02-06T01:40:44.291Z,11.20
2019-02-06T01:41:44.263Z,11.80
2019-02-06T01:42:44.244Z,11.10
2019-02-06T01:43:44.223Z,11.00
2019-02-06T01:44:44.196Z,10.50
2019-02-06T01:45:44.175Z,11.00
2019-02-06T01:46:44.150Z,11.00
2019-02-06T01:47:44.127Z,12.40
2019-02-06T01:48:44.112Z,11.10
2019-02-06T01:49:44.820Z,10.90
2019-02-06T01:50:44.115Z,11.80
2019-02-06T01:51:44.038Z,11.20
2019-02-06T01:52:44.013Z,11.50
2019-02-06T01:53:43.990Z,10.70
2019-02-06T01:54:43.963Z,10.70
2019-02-06T01:55:43.946Z,11.10
2019-02-06T01:56:43.919Z,11.10
2019-02-06T01:57:43.901Z,11.10
2019-02-06T01:58:43.877Z,11.00
2019-02-06T01:59:43.854Z,10.60
2019-02-06T02:00:43.829Z,10.80
2019-02-06T02:01:43.801Z,10.70
2019-02-06T02:02:43.774Z,10.90
2019-02-06T02:03:43.752Z,10.50
2019-02-06T02:04:43.739Z,10.10
2019-02-06T02:05:43.714Z,11.10
2019-02-06T02:06:43.690Z,11.10
2019-02-06T02:07:43.668Z,10.60
2019-02-06T02:08:43.647Z,10.80
2019-02-06T02:09:43.626Z,10.30
2019-02-06T02:10:43.600Z,10.50
2019-02-06T02:11:43.576Z,10.20
2019-02-06T02:12:43.550Z,10.60
2019-02-06T02:13:43.532Z,10.10
2019-02-06T02:14:43.505Z,10.60
2019-02-06T02:15:43.480Z,10.30
2019-02-06T02:16:43.466Z,10.50
2019-02-06T02:17:43.436Z,10.60
2019-02-06T02:18:43.419Z,10.10
2019-02-06T02:19:43.397Z,10.30
2019-02-06T02:20:43.370Z,10.00
2019-02-06T02:21:43.349Z,10.80
2019-02-06T02:22:43.328Z,11.40
2019-02-06T02:23:43.298Z,10.40
2019-02-06T02:24:43.277Z,10.60
2019-02-06T02:25:43.252Z,10.50
2019-02-06T02:26:43.233Z,9.90
2019-02-06T02:27:43.211Z,10.50
2019-02-06T02:28:43.187Z,11.00
2019-02-06T02:29:43.166Z,10.90
2019-02-06T02:30:43.139Z,10.20
2019-02-06T02:31:43.115Z,10.50
2019-02-06T02:32:43.099Z,10.80
2019-02-06T02:33:43.072Z,10.30
2019-02-06T02:34:43.046Z,11.00
2019-02-06T02:35:43.023Z,10.70
2019-02-06T02:36:43.002Z,11.00
2019-02-06T02:37:42.976Z,10.80
2019-02-06T02:38:42.953Z,10.90
2019-02-06T02:39:42.936Z,10.80
2019-02-06T02:40:42.908Z,11.00
2019-02-06T02:41:42.888Z,11.20
2019-02-06T02:42:42.860Z,10.70
2019-02-06T02:43:42.845Z,10.20
2019-02-06T02:44:42.818Z,10.40
2019-02-06T02:45:42.792Z,11.20
2019-02-06T02:46:42.770Z,10.30
2019-02-06T02:47:42.748Z,11.80
2019-02-06T02:48:42.727Z,10.50
2019-02-06T02:49:42.703Z,10.40
2019-02-06T02:50:42.676Z,10.60
2019-02-06T02:51:44.424Z,11.40
2019-02-06T02:52:42.634Z,10.80
2019-02-06T02:53:42.617Z,10.80
2019-02-06T02:54:42.589Z,10.80
2019-02-06T02:55:42.566Z,10.30
2019-02-06T02:56:42.543Z,10.80
2019-02-06T02:57:42.518Z,10.80
2019-02-06T02:58:42.494Z,10.70
2019-02-06T02:59:42.470Z,9.90
2019-02-06T03:00:42.450Z,10.40
2019-02-06T03:01:42.423Z,10.70
2019-02-06T03:02:42.512Z,10.90
2019-02-06T03:03:42.379Z,10.60
2019-02-06T03:04:42.358Z,11.00
2019-02-06T03:05:42.333Z,10.70
2019-02-06T03:06:42.316Z,11.20
2019-02-06T03:07:42.287Z,10.50
2019-02-06T03:08:42.265Z,10.40
2019-02-06T03:09:42.245Z,10.60
2019-02-06T03:10:42.219Z,10.80
2019-02-06T03:11:42.201Z,11.00
2019-02-06T03:12:42.179Z,10.10
2019-02-06T03:13:42.151Z,10.30
2019-02-06T03:14:42.128Z,10.80
2019-02-06T03:15:42.111Z,10.30
2019-02-06T03:16:42.079Z,10.90
2019-02-06T03:17:42.058Z,10.60
2019-02-06T03:18:42.033Z,10.80
2019-02-06T03:19:42.013Z,11.00
2019-02-06T03:20:41.991Z,10.50
2019-02-06T03:21:41.968Z,10.70
2019-02-06T03:22:41.948Z,11.60
2019-02-06T03:23:41.920Z,10.10
2019-02-06T03:24:41.901Z,10.90
2019-02-06T03:25:41.873Z,10.00
2019-02-06T03:26:41.849Z,11.30
2019-02-06T03:27:41.829Z,10.70
2019-02-06T03:28:41.805Z,10.40
2019-02-06T03:29:41.791Z,10.30
2019-02-06T03:30:41.760Z,10.50
2019-02-06T03:31:41.741Z,10.70
2019-02-06T03:32:41.794Z,10.30
2019-02-06T03:33:41.699Z,10.60
2019-02-06T03:34:41.669Z,10.30
2019-02-06T03:35:41.643Z,10.90
2019-02-06T03:36:41.622Z,10.50
2019-02-06T03:37:41.601Z,10.20
2019-02-06T03:38:41.575Z,11.30
2019-02-06T03:39:41.554Z,10.40
2019-02-06T03:40:41.533Z,10.60
2019-02-06T03:41:41.503Z,11.10
2019-02-06T03:42:41.482Z,10.80
2019-02-06T03:43:41.570Z,10.90
2019-02-06T03:44:41.439Z,11.40
2019-02-06T03:45:41.418Z,11.20
2019-02-06T03:46:41.391Z,11.20
2019-02-06T03:47:41.387Z,11.30
2019-02-06T03:48:41.346Z,11.00
2019-02-06T03:49:42.787Z,11.70
2019-02-06T03:50:41.299Z,11.20
2019-02-06T03:51:41.278Z,11.70
2019-02-06T03:52:41.255Z,11.30
2019-02-06T03:53:41.229Z,11.60
2019-02-06T03:54:41.210Z,11.90
2019-02-06T03:55:41.183Z,11.40
2019-02-06T03:56:41.162Z,11.30
2019-02-06T03:57:41.140Z,12.30
2019-02-06T03:58:41.133Z,11.80
2019-02-06T03:59:41.092Z,12.60
2019-02-06T04:00:41.069Z,12.10
2019-02-06T04:01:41.045Z,12.10
2019-02-06T04:02:41.020Z,11.50
2019-02-06T04:03:41.001Z,11.80
2019-02-06T04:04:40.974Z,12.60
2019-02-06T04:05:40.955Z,12.00
2019-02-06T04:06:52.897Z,12.10
2019-02-06T04:07:40.909Z,12.50
2019-02-06T04:08:40.890Z,12.10
2019-02-06T04:09:40.862Z,12.40
2019-02-06T04:10:40.837Z,12.60
2019-02-06T04:11:40.817Z,11.90
2019-02-06T04:12:40.796Z,13.10
2019-02-06T04:13:40.775Z,12.00
2019-02-06T04:14:40.748Z,12.60
2019-02-06T04:15:40.725Z,12.70
2019-02-06T04:16:40.703Z,12.80
2019-02-06T04:17:40.682Z,12.50
2019-02-06T04:18:40.655Z,12.90
2019-02-06T04:19:40.638Z,12.80
2019-02-06T04:20:40.619Z,13.10
2019-02-06T04:21:40.590Z,13.10
2019-02-06T04:22:40.569Z,12.90
2019-02-06T04:23:40.542Z,12.90
2019-02-06T04:24:40.518Z,13.10
2019-02-06T04:25:40.497Z,12.80
2019-02-06T04:26:40.476Z,12.80
2019-02-06T04:27:40.449Z,13.00
2019-02-06T04:28:40.425Z,13.30
2019-02-06T04:29:40.402Z,12.80
2019-02-06T04:30:40.380Z,13.80
2019-02-06T04:31:40.357Z,13.50
2019-02-06T04:32:40.333Z,13.30
2019-02-06T04:33:40.316Z,13.60
2019-02-06T04:34:40.286Z,13.30
2019-02-06T04:35:40.264Z,13.70
2019-02-06T04:36:40.243Z,13.30
2019-02-06T04:37:40.224Z,13.50
2019-02-06T04:38:40.198Z,14.50
2019-02-06T04:39:40.168Z,14.10
2019-02-06T04:40:40.155Z,14.10
2019-02-06T04:41:40.138Z,15.00
2019-02-06T04:42:40.108Z,14.80
2019-02-06T04:43:40.085Z,14.90
2019-02-06T04:44:40.056Z,15.40
2019-02-06T04:45:40.034Z,15.10
2019-02-06T04:46:40.010Z,16.20
2019-02-06T04:47:39.988Z,15.10
2019-02-06T04:48:39.968Z,16.30
2019-02-06T04:49:39.944Z,15.30
2019-02-06T04:50:39.916Z,16.50
2019-02-06T04:51:39.898Z,15.40
2019-02-06T04:52:39.873Z,15.60
2019-02-06T04:53:39.850Z,15.80
2019-02-06T04:54:39.826Z,15.80
2019-02-06T04:55:39.806Z,15.70
2019-02-06T04:56:39.788Z,15.70
2019-02-06T04:57:39.758Z,15.30
2019-02-06T04:58:39.733Z,15.90
2019-02-06T04:59:39.712Z,15.60
2019-02-06T05:00:39.692Z,15.50
2019-02-06T05:01:39.668Z,15.80
2019-02-06T05:02:39.645Z,16.30
2019-02-06T05:03:39.619Z,16.40
2019-02-06T05:04:39.596Z,17.20
2019-02-06T05:05:39.572Z,17.30
2019-02-06T05:06:39.552Z,17.10
2019-02-06T05:07:39.533Z,17.40
2019-02-06T05:08:39.507Z,17.70
2019-02-06T05:09:39.483Z,17.70
2019-02-06T05:10:39.459Z,17.80
2019-02-06T05:11:39.438Z,18.20
2019-02-06T05:12:39.408Z,18.00
2019-02-06T05:13:39.387Z,18.00
2019-02-06T05:14:39.361Z,18.80
2019-02-06T05:15:39.339Z,18.80
2019-02-06T05:16:39.315Z,18.60
2019-02-06T05:17:39.295Z,18.80
2019-02-06T05:18:39.273Z,19.20
2019-02-06T05:19:39.249Z,18.20
2019-02-06T05:20:39.227Z,19.20
2019-02-06T05:21:39.207Z,19.00
2019-02-06T05:22:39.177Z,19.30
2019-02-06T05:23:39.157Z,20.50
2019-02-06T05:24:39.133Z,20.30
2019-02-06T05:25:39.113Z,19.70
2019-02-06T05:26:39.091Z,19.80
2019-02-06T05:27:39.061Z,20.20
2019-02-06T05:28:39.046Z,19.80
2019-02-06T05:29:39.014Z,20.40
2019-02-06T05:30:38.996Z,19.10
2019-02-06T05:31:38.969Z,20.40
2019-02-06T05:32:42.827Z,20.20
2019-02-06T05:33:38.923Z,20.60
2019-02-06T05:34:38.905Z,21.00
2019-02-06T05:35:38.874Z,21.30
2019-02-06T05:36:38.850Z,20.60
2019-02-06T05:37:38.835Z,20.90
2019-02-06T05:38:38.807Z,20.70
2019-02-06T05:39:38.785Z,21.20
2019-02-06T05:40:38.759Z,21.30
2019-02-06T05:41:38.736Z,20.60
2019-02-06T05:42:38.713Z,21.40
2019-02-06T05:43:38.689Z,20.90
2019-02-06T05:44:38.665Z,20.50
2019-02-06T05:45:38.650Z,20.80
2019-02-06T05:46:38.617Z,21.80
2019-02-06T05:47:38.716Z,22.40
2019-02-06T05:48:38.576Z,21.70
2019-02-06T05:49:38.551Z,21.60
2019-02-06T05:50:38.526Z,21.70
2019-02-06T05:51:38.513Z,22.50
2019-02-06T05:52:38.486Z,20.50
2019-02-06T05:53:38.456Z,22.30
2019-02-06T05:54:38.441Z,21.50
2019-02-06T05:55:38.415Z,21.80
2019-02-06T05:56:38.387Z,23.00
2019-02-06T05:57:38.363Z,22.90
2019-02-06T05:58:38.335Z,22.70
2019-02-06T05:59:38.312Z,22.90
2019-02-06T06:00:38.290Z,23.70
2019-02-06T06:01:38.267Z,24.10
2019-02-06T06:02:38.272Z,24.40
2019-02-06T06:03:38.220Z,24.50
2019-02-06T06:04:38.198Z,22.60
2019-02-06T06:05:38.173Z,24.50
2019-02-06T06:06:38.149Z,23.60
2019-02-06T06:07:45.245Z,23.20
2019-02-06T06:08:38.103Z,24.70
2019-02-06T06:09:38.087Z,26.10
2019-02-06T06:10:38.058Z,25.20
2019-02-06T06:11:38.032Z,25.10
2019-02-06T06:12:38.012Z,26.50
2019-02-06T06:13:37.988Z,25.80
2019-02-06T06:14:37.957Z,25.40
2019-02-06T06:15:37.935Z,26.40
2019-02-06T06:16:37.915Z,26.70
2019-02-06T06:17:37.887Z,26.90
2019-02-06T06:18:37.868Z,26.10
2019-02-06T06:19:37.846Z,26.40
2019-02-06T06:20:37.824Z,24.70
2019-02-06T06:21:37.797Z,26.30
2019-02-06T06:22:37.769Z,24.50
2019-02-06T06:23:37.747Z,24.90
2019-02-06T06:24:37.724Z,26.30
2019-02-06T06:25:37.702Z,27.20
2019-02-06T06:26:37.673Z,26.60
2019-02-06T06:27:37.659Z,27.80
2019-02-06T06:28:37.633Z,26.30
2019-02-06T06:29:37.608Z,29.10
2019-02-06T06:30:37.581Z,27.70
2019-02-06T06:31:37.586Z,29.10
2019-02-06T06:32:37.535Z,28.40
2019-02-06T06:33:37.512Z,28.30
2019-02-06T06:34:37.487Z,27.70
2019-02-06T06:35:37.469Z,29.80
2019-02-06T06:36:37.442Z,28.30
2019-02-06T06:37:37.413Z,28.50
2019-02-06T06:38:37.395Z,28.60
2019-02-06T06:39:37.371Z,28.90
2019-02-06T06:40:37.343Z,28.30
2019-02-06T06:41:37.329Z,28.90
2019-02-06T06:42:37.297Z,30.80
2019-02-06T06:43:37.275Z,31.10
2019-02-06T06:44:37.256Z,30.90
2019-02-06T06:45:37.227Z,31.20
2019-02-06T06:46:37.213Z,31.50
2019-02-06T06:47:37.180Z,30.60
2019-02-06T06:48:37.157Z,31.30
2019-02-06T06:49:37.130Z,31.00
2019-02-06T06:50:37.104Z,31.10
2019-02-06T06:51:37.088Z,30.50
2019-02-06T06:52:37.054Z,31.70
2019-02-06T06:53:37.035Z,31.10
2019-02-06T06:54:37.008Z,31.00
2019-02-06T06:55:36.986Z,31.70
2019-02-06T06:56:36.961Z,31.10
2019-02-06T06:57:36.936Z,28.70
2019-02-06T06:58:36.914Z,29.50
2019-02-06T06:59:36.892Z,30.80
2019-02-06T07:00:36.873Z,30.90
2019-02-06T07:01:36.846Z,30.50
2019-02-06T07:02:36.834Z,29.50
2019-02-06T07:03:36.794Z,30.00
2019-02-06T07:04:36.771Z,31.10
2019-02-06T07:05:36.750Z,29.70
2019-02-06T07:06:36.734Z,31.20
2019-02-06T07:07:36.704Z,30.00
2019-02-06T07:08:36.678Z,30.80
2019-02-06T07:09:36.654Z,32.20
2019-02-06T07:10:36.628Z,30.60
2019-02-06T07:11:36.608Z,30.60
2019-02-06T07:12:36.582Z,30.40
2019-02-06T07:13:37.193Z,29.70
2019-02-06T07:14:36.533Z,30.50
2019-02-06T07:15:36.506Z,28.80
2019-02-06T07:16:36.486Z,29.80
2019-02-06T07:17:36.465Z,30.60
2019-02-06T07:18:36.438Z,30.20
2019-02-06T07:19:36.416Z,30.70
2019-02-06T07:20:36.492Z,29.80
2019-02-06T07:21:36.363Z,29.60
2019-02-06T07:22:36.340Z,28.30
2019-02-06T07:23:36.317Z,29.30
2019-02-06T07:24:36.296Z,28.40
2019-02-06T07:25:36.274Z,29.50
2019-02-06T07:26:36.252Z,28.80
2019-02-06T07:27:36.236Z,30.80
2019-02-06T07:28:36.201Z,29.50
2019-02-06T07:29:36.182Z,29.90
2019-02-06T07:30:36.152Z,28.70
2019-02-06T07:31:36.128Z,28.00
2019-02-06T07:32:36.500Z,28.20
2019-02-06T07:33:36.082Z,28.30
2019-02-06T07:34:36.056Z,28.70
2019-02-06T07:35:36.035Z,28.00
2019-02-06T07:36:36.010Z,28.80
2019-02-06T07:37:35.986Z,27.70
2019-02-06T07:38:35.963Z,27.70
2019-02-06T07:39:35.940Z,27.30
2019-02-06T07:40:35.920Z,26.70
2019-02-06T07:41:35.895Z,28.80
2019-02-06T07:42:35.871Z,27.40
2019-02-06T07:43:35.846Z,26.90
2019-02-06T07:44:35.825Z,27.20
2019-02-06T07:45:35.801Z,26.70
2019-02-06T07:46:35.770Z,27.00
2019-02-06T07:47:35.752Z,26.10
2019-02-06T07:48:35.734Z,27.10
2019-02-06T07:49:35.705Z,27.30
2019-02-06T07:50:35.687Z,27.30
2019-02-06T07:51:35.660Z,27.00
2019-02-06T07:52:35.630Z,26.80
2019-02-06T07:53:35.617Z,27.40
2019-02-06T07:54:35.590Z,27.70
2019-02-06T07:55:35.564Z,26.40
2019-02-06T07:56:35.545Z,26.60
2019-02-06T07:57:35.518Z,27.80
2019-02-06T07:58:35.495Z,27.90
2019-02-06T07:59:35.469Z,27.00
2019-02-06T08:00:35.449Z,28.00
2019-02-06T08:01:35.427Z,27.00
2019-02-06T08:02:35.397Z,27.50
2019-02-06T08:03:35.377Z,26.60
2019-02-06T08:04:35.361Z,27.00
2019-02-06T08:05:35.335Z,26.70
2019-02-06T08:06:35.315Z,26.20
2019-02-06T08:07:35.287Z,26.00
2019-02-06T08:08:36.458Z,26.20
2019-02-06T08:09:35.237Z,27.20
2019-02-06T08:10:35.217Z,25.50
2019-02-06T08:11:35.191Z,25.70
2019-02-06T08:12:35.170Z,25.30
2019-02-06T08:13:35.146Z,25.80
2019-02-06T08:14:35.124Z,27.10
2019-02-06T08:15:35.095Z,26.40
2019-02-06T08:16:35.077Z,25.90
2019-02-06T08:17:35.052Z,26.80
2019-02-06T08:18:35.033Z,26.30
2019-02-06T08:19:35.006Z,25.30
2019-02-06T08:20:34.986Z,24.20
2019-02-06T08:21:34.957Z,25.80
2019-02-06T08:22:34.932Z,24.40
2019-02-06T08:23:34.908Z,25.30
2019-02-06T08:24:34.889Z,25.00
2019-02-06T08:25:34.872Z,25.70
2019-02-06T08:26:34.845Z,25.00
2019-02-06T08:27:34.818Z,25.50
2019-02-06T08:28:34.871Z,25.60
2019-02-06T08:29:34.777Z,26.30
2019-02-06T08:30:35.201Z,25.50
2019-02-06T08:31:34.729Z,25.90
2019-02-06T08:32:34.704Z,24.50
2019-02-06T08:33:34.689Z,25.20
2019-02-06T08:34:34.731Z,25.30
2019-02-06T08:35:34.638Z,25.00
2019-02-06T08:36:34.618Z,26.20
2019-02-06T08:37:34.595Z,25.60
2019-02-06T08:38:34.570Z,26.10
2019-02-06T08:39:34.550Z,25.20
2019-02-06T08:40:34.533Z,25.10
2019-02-06T08:41:34.499Z,24.30
2019-02-06T08:42:34.477Z,25.30
2019-02-06T08:43:34.458Z,25.10
2019-02-06T08:44:34.449Z,24.90
2019-02-06T08:45:34.416Z,23.90
2019-02-06T08:46:34.394Z,24.40
2019-02-06T08:47:34.375Z,23.50
2019-02-06T08:48:34.345Z,24.40
2019-02-06T08:49:34.325Z,23.70
2019-02-06T08:50:34.299Z,23.80
2019-02-06T08:51:34.287Z,24.50
2019-02-06T08:52:34.256Z,23.50
2019-02-06T08:53:34.240Z,23.20
2019-02-06T08:54:34.212Z,23.00
2019-02-06T08:55:34.192Z,22.80
2019-02-06T08:56:34.164Z,23.20
2019-02-06T08:57:34.142Z,24.00
2019-02-06T08:58:34.120Z,22.70
2019-02-06T08:59:36.182Z,23.40
2019-02-06T09:00:34.082Z,22.50
2019-02-06T09:01:34.055Z,22.60
2019-02-06T09:02:34.042Z,22.40
2019-02-06T09:03:34.012Z,22.50
2019-02-06T09:04:33.987Z,21.90
2019-02-06T09:05:33.970Z,22.50
2019-02-06T09:06:33.945Z,21.90
2019-02-06T09:07:33.922Z,22.10
2019-02-06T09:08:33.901Z,21.50
2019-02-06T09:09:33.876Z,21.90
2019-02-06T09:10:33.857Z,21.50
2019-02-06T09:11:33.837Z,21.10
2019-02-06T09:12:33.811Z,20.90
2019-02-06T09:13:33.789Z,20.50
2019-02-06T09:14:33.766Z,20.90
2019-02-06T09:15:33.742Z,22.00
2019-02-06T09:16:33.720Z,21.40
2019-02-06T09:17:33.703Z,21.20
2019-02-06T09:18:33.680Z,20.50
2019-02-06T09:19:33.660Z,20.00
2019-02-06T09:20:33.635Z,20.60
2019-02-06T09:21:33.615Z,20.90
2019-02-06T09:22:33.592Z,20.30
2019-02-06T09:23:33.568Z,19.80
2019-02-06T09:24:33.546Z,19.60
2019-02-06T09:25:33.524Z,18.80
2019-02-06T09:26:36.132Z,19.50
2019-02-06T09:27:33.485Z,19.20
2019-02-06T09:28:33.462Z,18.70
2019-02-06T09:29:33.450Z,19.00
2019-02-06T09:31:33.399Z,17.80
2019-02-06T09:32:33.374Z,18.20
2019-02-06T09:33:33.352Z,18.10
2019-02-06T09:34:33.332Z,18.00
2019-02-06T09:35:33.311Z,16.90
2019-02-06T09:36:33.296Z,17.60
2019-02-06T09:37:33.272Z,17.80
2019-02-06T09:38:33.252Z,17.20
2019-02-06T09:39:33.242Z,17.10
2019-02-06T09:40:33.208Z,17.00
2019-02-06T09:41:33.192Z,15.90
2019-02-06T09:42:33.171Z,16.10
2019-02-06T09:43:33.148Z,16.40
2019-02-06T09:44:33.133Z,16.40
2019-02-06T09:45:33.106Z,16.10
2019-02-06T09:46:33.088Z,17.80
2019-02-06T09:47:33.079Z,17.90
2019-02-06T09:48:33.050Z,18.20
2019-02-06T09:49:33.086Z,15.70
2019-02-06T09:50:33.014Z,15.40
2019-02-06T09:51:32.996Z,15.10
2019-02-06T09:52:32.981Z,15.70
2019-02-06T09:53:32.960Z,14.40
2019-02-06T09:54:32.938Z,15.00
2019-02-06T09:55:32.934Z,14.50
2019-02-06T09:56:32.909Z,13.70
2019-02-06T09:57:35.461Z,13.30
2019-02-06T09:58:32.869Z,14.90
2019-02-06T09:59:32.854Z,13.90
2019-02-06T10:00:32.839Z,14.00
2019-02-06T10:01:32.819Z,13.50
2019-02-06T10:02:32.796Z,14.20
2019-02-06T10:03:32.778Z,14.80
2019-02-06T10:04:32.764Z,13.90
2019-02-06T10:05:32.747Z,13.60
2019-02-06T10:06:32.725Z,14.40
2019-02-06T10:07:32.719Z,13.10
2019-02-06T10:08:32.694Z,12.50
2019-02-06T10:09:32.677Z,13.20
2019-02-06T10:10:32.716Z,12.50
2019-02-06T10:11:32.641Z,12.40
2019-02-06T10:12:32.625Z,12.60
2019-02-06T10:13:32.609Z,12.30
2019-02-06T10:14:32.588Z,12.70
2019-02-06T10:15:32.646Z,12.40
2019-02-06T10:16:32.558Z,12.10
2019-02-06T10:17:32.536Z,11.90
2019-02-06T10:18:32.520Z,12.20
2019-02-06T10:19:32.499Z,11.30
2019-02-06T10:20:32.484Z,12.70
2019-02-06T10:21:32.469Z,12.20
2019-02-06T10:22:32.452Z,11.80
2019-02-06T10:23:32.427Z,12.20
2019-02-06T10:24:32.410Z,12.60
2019-02-06T10:25:32.393Z,12.20
2019-02-06T10:26:32.370Z,12.60
2019-02-06T10:27:32.364Z,11.10
2019-02-06T10:28:32.343Z,11.40
2019-02-06T10:29:32.318Z,11.10
2019-02-06T10:30:32.302Z,11.20
2019-02-06T10:31:32.901Z,11.60
2019-02-06T10:32:32.266Z,11.40
2019-02-06T10:33:32.250Z,11.20
2019-02-06T10:34:32.231Z,12.10
2019-02-06T10:35:32.210Z,11.80
2019-02-06T10:36:32.194Z,11.70
2019-02-06T10:37:32.175Z,11.40
2019-02-06T10:38:32.154Z,11.00
2019-02-06T10:39:34.641Z,11.00
2019-02-06T10:40:32.115Z,10.60
2019-02-06T10:41:32.098Z,11.20
2019-02-06T10:42:32.078Z,11.50
2019-02-06T10:43:35.706Z,11.00
2019-02-06T10:44:32.048Z,10.70
2019-02-06T10:45:32.026Z,10.50
2019-02-06T10:46:32.012Z,11.20
2019-02-06T10:47:31.991Z,11.10
2019-02-06T10:48:31.970Z,10.90
2019-02-06T10:49:31.952Z,10.70
2019-02-06T10:50:31.995Z,11.60
2019-02-06T10:51:31.918Z,11.10
2019-02-06T10:52:31.901Z,11.30
2019-02-06T10:53:31.999Z,10.70
2019-02-06T10:54:31.857Z,10.70
2019-02-06T10:55:31.843Z,10.20
2019-02-06T10:56:31.825Z,10.40
2019-02-06T10:57:31.807Z,10.60
2019-02-06T10:58:31.783Z,10.30
2019-02-06T10:59:31.782Z,10.00
2019-02-06T11:00:31.745Z,9.50
2019-02-06T11:01:31.730Z,9.70
2019-02-06T11:02:34.521Z,10.40
2019-02-06T11:03:31.693Z,10.00
2019-02-06T11:04:31.675Z,9.20
2019-02-06T11:05:31.656Z,9.70
2019-02-06T11:06:31.637Z,9.90
2019-02-06T11:07:31.617Z,9.50
2019-02-06T11:08:31.597Z,10.00
2019-02-06T11:09:31.583Z,9.80
2019-02-06T11:10:31.559Z,9.90
2019-02-06T11:11:31.545Z,9.60
2019-02-06T11:12:31.527Z,9.90
2019-02-06T11:13:31.503Z,9.90
2019-02-06T11:14:31.488Z,9.60
2019-02-06T11:15:31.467Z,9.70
2019-02-06T11:16:31.447Z,10.00
2019-02-06T11:17:31.431Z,10.20
2019-02-06T11:18:31.417Z,9.60
2019-02-06T11:19:31.399Z,9.10
2019-02-06T11:20:31.377Z,9.90
2019-02-06T11:21:31.395Z,9.20
2019-02-06T11:22:31.335Z,9.70
2019-02-06T11:23:31.317Z,9.90
2019-02-06T11:24:31.298Z,9.80
2019-02-06T11:25:31.281Z,9.70
2019-02-06T11:26:31.258Z,9.90
2019-02-06T11:27:31.244Z,9.40
2019-02-06T11:28:31.225Z,9.70
2019-02-06T11:29:31.205Z,9.90
2019-02-06T11:30:31.201Z,10.20
2019-02-06T11:31:31.165Z,9.50
2019-02-06T11:32:31.151Z,9.30
2019-02-06T11:33:31.131Z,9.10
2019-02-06T11:34:31.107Z,8.80
2019-02-06T11:35:31.091Z,8.60
2019-02-06T11:36:31.071Z,8.00
2019-02-06T11:37:31.053Z,9.00
2019-02-06T11:38:31.038Z,9.10
2019-02-06T11:39:31.019Z,9.20
2019-02-06T11:40:31.001Z,9.10
2019-02-06T11:41:30.978Z,9.80
2019-02-06T11:42:30.957Z,8.40
2019-02-06T11:43:32.155Z,8.90
2019-02-06T11:44:30.925Z,9.30
2019-02-06T11:45:30.907Z,9.50
2019-02-06T11:46:30.885Z,9.20
2019-02-06T11:47:30.868Z,9.50
2019-02-06T11:48:30.848Z,9.70
2019-02-06T11:49:30.835Z,10.20
2019-02-06T11:50:30.809Z,9.60
2019-02-06T11:51:30.795Z,9.90
2019-02-06T11:52:30.774Z,9.10
2019-02-06T11:53:30.759Z,9.30
2019-02-06T11:54:30.730Z,8.90
2019-02-06T11:55:30.719Z,8.50
2019-02-06T11:56:30.702Z,8.60
2019-02-06T11:57:30.677Z,8.50
2019-02-06T11:58:30.662Z,8.60
2019-02-06T11:59:30.641Z,8.80
2019-02-06T12:00:30.619Z,8.70
2019-02-06T12:01:30.601Z,9.30
2019-02-06T12:02:37.367Z,8.50
2019-02-06T12:03:30.570Z,8.40
2019-02-06T12:04:30.545Z,8.30
2019-02-06T12:05:30.525Z,8.80
2019-02-06T12:06:30.506Z,8.60
2019-02-06T12:07:30.490Z,9.10
2019-02-06T12:08:31.262Z,8.50
2019-02-06T12:09:30.450Z,9.00
2019-02-06T12:10:30.434Z,8.30
2019-02-06T12:11:30.416Z,8.70
2019-02-06T12:12:30.396Z,8.50
2019-02-06T12:13:30.386Z,8.90
2019-02-06T12:14:30.359Z,8.50
2019-02-06T12:15:30.342Z,8.40
2019-02-06T12:16:30.448Z,8.30
2019-02-06T12:17:30.303Z,8.00
2019-02-06T12:18:30.282Z,8.00
2019-02-06T12:19:30.263Z,7.90
2019-02-06T12:20:30.245Z,7.80
2019-02-06T12:21:30.230Z,7.80
2019-02-06T12:22:30.207Z,8.10
2019-02-06T12:23:32.263Z,7.60
2019-02-06T12:24:30.168Z,7.90
2019-02-06T12:25:30.151Z,7.80
2019-02-06T12:26:30.137Z,7.80
2019-02-06T12:27:30.113Z,7.70
2019-02-06T12:28:30.094Z,7.60
2019-02-06T12:29:30.075Z,8.00
2019-02-06T12:30:30.055Z,7.40
2019-02-06T12:31:30.036Z,8.30
2019-02-06T12:32:30.021Z,7.10
2019-02-06T12:33:30.000Z,7.50
2019-02-06T12:34:29.978Z,7.40
2019-02-06T12:35:29.963Z,7.70
2019-02-06T12:36:29.946Z,7.70
2019-02-06T12:37:29.923Z,7.40
2019-02-06T12:38:29.909Z,6.80
2019-02-06T12:39:29.884Z,7.20
2019-02-06T12:40:29.864Z,7.30
2019-02-06T12:41:29.848Z,7.20
2019-02-06T12:42:29.826Z,8.00
2019-02-06T12:43:29.811Z,7.50
2019-02-06T12:44:29.791Z,7.20
2019-02-06T12:45:29.772Z,7.10
2019-02-06T12:46:29.747Z,7.40
2019-02-06T12:47:29.733Z,7.40
2019-02-06T12:48:29.709Z,7.00
2019-02-06T12:49:29.698Z,7.30
2019-02-06T12:50:29.672Z,7.10
2019-02-06T12:51:29.654Z,7.50
2019-02-06T12:52:29.631Z,7.50
2019-02-06T12:53:29.610Z,7.50
2019-02-06T12:54:29.597Z,6.90
2019-02-06T12:55:29.572Z,7.10
2019-02-06T12:56:29.551Z,7.50
2019-02-06T12:57:37.160Z,6.90
2019-02-06T12:58:29.522Z,6.80
2019-02-06T12:59:29.495Z,7.20
2019-02-06T13:00:29.478Z,7.20
2019-02-06T13:01:29.461Z,7.00
2019-02-06T13:02:29.435Z,7.80
2019-02-06T13:03:29.417Z,7.30
2019-02-06T13:04:29.397Z,7.30
2019-02-06T13:05:29.385Z,7.40
2019-02-06T13:06:29.353Z,7.20
2019-02-06T13:07:29.335Z,7.70
2019-02-06T13:08:29.319Z,7.30
2019-02-06T13:09:29.297Z,7.50
2019-02-06T13:10:33.945Z,7.40
2019-02-06T13:11:29.256Z,7.50
2019-02-06T13:12:29.241Z,7.70
2019-02-06T13:13:29.220Z,7.50
2019-02-06T13:14:29.198Z,7.00
2019-02-06T13:15:29.299Z,7.70
2019-02-06T13:16:29.161Z,8.00
2019-02-06T13:17:29.137Z,8.40
2019-02-06T13:18:29.118Z,8.90
2019-02-06T13:19:29.095Z,8.20
2019-02-06T13:20:29.075Z,8.30
2019-02-06T13:21:29.062Z,7.50
2019-02-06T13:22:29.040Z,8.40
2019-02-06T13:23:29.019Z,7.70
2019-02-06T13:24:28.997Z,7.80
2019-02-06T13:25:28.981Z,8.40
2019-02-06T13:26:28.955Z,8.10